Time,TemperatureF,DewpointF,PressureIn,WindDirection,WindDirectionDegrees,WindSpeedMPH,WindSpeedGustMPH,Humidity,HourlyPrecipIn,Conditions,Clouds,dailyrainin,SoftwareType,DateUTC
2013-01-08 00:04:00,19.0,5.9,30.28,SE,142,2.0,2.0,56,0.00,,,0.00,Wunderground v.1.15,2013-01-08 07:04:00,
2013-01-08 00:10:00,19.5,6.3,30.28,SE,142,1.0,2.0,56,0.00,,,0.00,Wunderground v.1.15,2013-01-08 07:10:00,
2013-01-08 00:14:00,19.4,6.2,30.28,SSE,149,1.0,2.0,56,0.00,,,0.00,Wunderground v.1.15,2013-01-08 07:14:00,
2013-01-08 00:20:00,18.8,5.7,30.28,SSE,148,1.0,2.0,56,0.00,,,0.00,Wunderground v.1.15,2013-01-08 07:20:00,
2013-01-08 00:25:00,18.4,6.1,30.29,SSE,148,1.0,1.0,58,0.00,,,0.00,Wunderground v.1.15,2013-01-08 07:25:00,
2013-01-08 00:30:00,17.9,5.6,30.29,SSE,148,0.0,1.0,58,0.00,,,0.00,Wunderground v.1.15,2013-01-08 07:30:00,
2013-01-08 00:34:00,17.6,5.3,30.29,SSE,148,0.0,0.0,58,0.00,,,0.00,Wunderground v.1.15,2013-01-08 07:34:00,
2013-01-08 00:40:00,17.1,5.6,30.29,SSE,148,1.0,1.0,60,0.00,,,0.00,Wunderground v.1.15,2013-01-08 07:40:00,
2013-01-08 00:50:00,16.2,5.1,30.28,SSE,149,1.0,3.0,61,0.00,,,0.00,Wunderground v.1.15,2013-01-08 07:50:00,
2013-01-08 00:54:00,16.2,5.1,30.29,SSE,149,1.0,1.0,61,0.00,,,0.00,Wunderground v.1.15,2013-01-08 07:54:00,
2013-01-08 01:00:00,16.7,5.2,30.29,SSE,147,2.0,2.0,60,0.00,,,0.00,Wunderground v.1.15,2013-01-08 08:00:00,
2013-01-08 01:04:00,17.0,5.5,30.30,SSE,147,2.0,9.0,60,0.00,,,0.00,Wunderground v.1.15,2013-01-08 08:04:00,
2013-01-08 01:10:00,17.4,5.5,30.29,SSE,147,1.0,9.0,59,0.00,,,0.00,Wunderground v.1.15,2013-01-08 08:10:00,
2013-01-08 01:15:00,17.8,5.5,30.29,SE,146,1.0,1.0,58,0.00,,,0.00,Wunderground v.1.15,2013-01-08 08:15:00,
2013-01-08 01:20:00,18.0,5.3,30.30,SE,146,1.0,1.0,57,0.00,,,0.00,Wunderground v.1.15,2013-01-08 08:20:00,
2013-01-08 01:24:00,18.0,5.7,30.30,SE,146,0.0,0.0,58,0.00,,,0.00,Wunderground v.1.15,2013-01-08 08:24:00,
2013-01-08 01:30:00,17.8,5.5,30.30,SE,146,0.0,0.0,58,0.00,,,0.00,Wunderground v.1.15,2013-01-08 08:30:00,
2013-01-08 01:35:00,17.6,5.7,30.30,SE,146,0.0,0.0,59,0.00,,,0.00,Wunderground v.1.15,2013-01-08 08:35:00,
2013-01-08 01:40:00,17.5,4.8,30.30,SE,146,0.0,1.0,57,0.00,,,0.00,Wunderground v.1.15,2013-01-08 08:40:00,
2013-01-08 01:44:00,17.5,5.2,30.29,SE,146,1.0,2.0,58,0.00,,,0.00,Wunderground v.1.15,2013-01-08 08:44:00,
2013-01-08 01:50:00,17.6,4.9,30.30,SE,146,2.0,2.0,57,0.00,,,0.00,Wunderground v.1.15,2013-01-08 08:50:00,
2013-01-08 01:55:00,17.9,4.8,30.30,SE,132,3.0,4.0,56,0.00,,,0.00,Wunderground v.1.15,2013-01-08 08:55:00,
2013-01-08 02:04:00,18.3,4.4,30.29,ESE,123,2.0,2.0,54,0.00,,,0.00,Wunderground v.1.15,2013-01-08 09:04:00,
2013-01-08 02:10:00,18.7,5.2,30.29,ESE,122,2.0,3.0,55,0.00,,,0.00,Wunderground v.1.15,2013-01-08 09:10:00,
2013-01-08 02:20:00,19.3,5.7,30.30,ESE,117,1.0,2.0,55,0.00,,,0.00,Wunderground v.1.15,2013-01-08 09:20:00,
2013-01-08 02:24:00,19.4,5.8,30.31,ESE,117,0.0,0.0,55,0.00,,,0.00,Wunderground v.1.15,2013-01-08 09:24:00,
2013-01-08 02:30:00,18.9,5.0,30.31,ESE,117,1.0,1.0,54,0.00,,,0.00,Wunderground v.1.15,2013-01-08 09:30:00,
2013-01-08 02:40:00,17.9,5.6,30.32,ESE,117,0.0,1.0,58,0.00,,,0.00,Wunderground v.1.15,2013-01-08 09:40:00,
2013-01-08 02:50:00,16.3,4.5,30.31,ESE,117,0.0,1.0,59,0.00,,,0.00,Wunderground v.1.15,2013-01-08 09:50:00,
2013-01-08 03:00:00,15.0,4.3,30.32,ESE,117,0.0,0.0,62,0.00,,,0.00,Wunderground v.1.15,2013-01-08 10:00:00,
2013-01-08 03:04:00,14.7,4.4,30.31,ESE,117,0.0,2.0,63,0.00,,,0.00,Wunderground v.1.15,2013-01-08 10:04:00,
2013-01-08 03:10:00,15.2,4.1,30.31,ESE,117,0.0,0.0,61,0.00,,,0.00,Wunderground v.1.15,2013-01-08 10:10:00,
2013-01-08 03:15:00,15.9,4.8,30.31,ESE,117,1.0,1.0,61,0.00,,,0.00,Wunderground v.1.15,2013-01-08 10:15:00,
2013-01-08 03:20:00,16.7,4.8,30.30,ESE,117,1.0,2.0,59,0.00,,,0.00,Wunderground v.1.15,2013-01-08 10:20:00,
2013-01-08 03:24:00,17.0,4.7,30.30,ESE,117,2.0,2.0,58,0.00,,,0.00,Wunderground v.1.15,2013-01-08 10:24:00,
2013-01-08 03:30:00,17.3,5.4,30.31,ESE,121,1.0,1.0,59,0.00,,,0.00,Wunderground v.1.15,2013-01-08 10:30:00,
2013-01-08 03:40:00,16.8,4.6,30.32,ESE,121,0.0,0.0,58,0.00,,,0.00,Wunderground v.1.15,2013-01-08 10:40:00,
2013-01-08 03:50:00,15.9,4.4,30.31,ESE,121,0.0,0.0,60,0.00,,,0.00,Wunderground v.1.15,2013-01-08 10:50:00,
2013-01-08 03:55:00,15.4,4.3,30.30,ESE,121,0.0,0.0,61,0.00,,,0.00,Wunderground v.1.15,2013-01-08 10:55:00,
2013-01-08 04:00:00,15.0,4.0,30.31,ESE,121,0.0,0.0,61,0.00,,,0.00,Wunderground v.1.15,2013-01-08 11:00:00,
2013-01-08 04:05:00,14.8,3.8,30.30,ESE,121,0.0,7.0,61,0.00,,,0.00,Wunderground v.1.15,2013-01-08 11:05:00,
2013-01-08 04:10:00,14.5,3.5,30.30,ESE,121,0.0,0.0,61,0.00,,,0.00,Wunderground v.1.15,2013-01-08 11:10:00,
2013-01-08 04:14:00,14.3,3.6,30.29,ESE,121,0.0,1.0,62,0.00,,,0.00,Wunderground v.1.15,2013-01-08 11:14:00,
2013-01-08 04:20:00,14.7,4.0,30.30,ESE,121,1.0,1.0,62,0.00,,,0.00,Wunderground v.1.15,2013-01-08 11:20:00,
2013-01-08 04:25:00,15.0,4.3,30.30,ESE,121,1.0,1.0,62,0.00,,,0.00,Wunderground v.1.15,2013-01-08 11:25:00,
2013-01-08 04:30:00,15.1,4.4,30.31,ESE,121,0.0,0.0,62,0.00,,,0.00,Wunderground v.1.15,2013-01-08 11:30:00,
2013-01-08 04:34:00,14.9,3.9,30.32,ESE,121,0.0,0.0,61,0.00,,,0.00,Wunderground v.1.15,2013-01-08 11:34:00,
2013-01-08 04:40:00,14.5,3.8,30.32,ESE,121,0.0,0.0,62,0.00,,,0.00,Wunderground v.1.15,2013-01-08 11:40:00,
2013-01-08 04:44:00,14.3,4.0,30.33,ESE,121,0.0,0.0,63,0.00,,,0.00,Wunderground v.1.15,2013-01-08 11:44:00,
2013-01-08 04:50:00,14.2,4.6,30.33,ESE,121,0.0,0.0,65,0.00,,,0.00,Wunderground v.1.15,2013-01-08 11:50:00,
2013-01-08 05:04:00,14.0,4.4,30.32,ESE,121,0.0,6.0,65,0.00,,,0.00,Wunderground v.1.15,2013-01-08 12:04:00,
2013-01-08 05:10:00,14.3,3.6,30.32,ESE,121,0.0,6.0,62,0.00,,,0.00,Wunderground v.1.15,2013-01-08 12:10:00,
2013-01-08 05:15:00,14.8,4.1,30.31,ESE,121,1.0,1.0,62,0.00,,,0.00,Wunderground v.1.15,2013-01-08 12:15:00,
2013-01-08 05:20:00,15.3,5.3,30.32,ESE,121,1.0,2.0,64,0.00,,,0.00,Wunderground v.1.15,2013-01-08 12:20:00,
2013-01-08 05:30:00,15.2,4.1,30.33,ESE,121,1.0,2.0,61,0.00,,,0.00,Wunderground v.1.15,2013-01-08 12:30:00,
2013-01-08 05:34:00,14.9,3.9,30.33,ESE,121,0.0,0.0,61,0.00,,,0.00,Wunderground v.1.15,2013-01-08 12:34:00,
2013-01-08 05:40:00,14.5,3.8,30.34,ESE,121,0.0,0.0,62,0.00,,,0.00,Wunderground v.1.15,2013-01-08 12:40:00,
2013-01-08 05:44:00,14.2,3.9,30.34,ESE,121,0.0,0.0,63,0.00,,,0.00,Wunderground v.1.15,2013-01-08 12:44:00,
2013-01-08 05:50:00,13.9,3.6,30.34,ESE,121,0.0,0.0,63,0.00,,,0.00,Wunderground v.1.15,2013-01-08 12:50:00,
2013-01-08 06:00:00,13.0,3.4,30.33,ESE,121,0.0,0.0,65,0.00,,,0.00,Wunderground v.1.15,2013-01-08 13:00:00,
2013-01-08 06:10:00,13.2,3.3,30.33,ESE,121,0.0,0.0,64,0.00,,,0.00,Wunderground v.1.15,2013-01-08 13:10:00,
2013-01-08 06:14:00,13.4,3.5,30.34,ESE,121,0.0,0.0,64,0.00,,,0.00,Wunderground v.1.15,2013-01-08 13:14:00,
2013-01-08 06:20:00,13.4,4.5,30.34,ESE,121,0.0,0.0,67,0.00,,,0.00,Wunderground v.1.15,2013-01-08 13:20:00,
2013-01-08 06:25:00,13.1,2.9,30.34,ESE,121,0.0,0.0,63,0.00,,,0.00,Wunderground v.1.15,2013-01-08 13:25:00,
2013-01-08 06:30:00,12.6,3.1,30.35,ESE,121,0.0,0.0,65,0.00,,,0.00,Wunderground v.1.15,2013-01-08 13:30:00,
2013-01-08 06:34:00,12.4,3.2,30.34,ESE,121,0.0,1.0,66,0.00,,,0.00,Wunderground v.1.15,2013-01-08 13:34:00,
2013-01-08 06:40:00,12.3,3.4,30.34,ESE,121,0.0,1.0,67,0.00,,,0.00,Wunderground v.1.15,2013-01-08 13:40:00,
2013-01-08 06:45:00,12.5,3.9,30.34,ESE,121,0.0,1.0,68,0.00,,,0.00,Wunderground v.1.15,2013-01-08 13:45:00,
2013-01-08 06:50:00,13.1,4.5,30.34,ESE,121,0.0,0.0,68,0.00,,,0.00,Wunderground v.1.15,2013-01-08 13:50:00,
2013-01-08 06:54:00,13.7,4.1,30.33,ESE,121,0.0,0.0,65,0.00,,,0.00,Wunderground v.1.15,2013-01-08 13:54:00,
2013-01-08 07:00:00,14.2,4.2,30.33,ESE,121,0.0,3.0,64,0.00,,,0.00,Wunderground v.1.15,2013-01-08 14:00:00,
2013-01-08 07:04:00,14.7,4.7,30.34,ESE,121,0.0,3.0,64,0.00,,,0.00,Wunderground v.1.15,2013-01-08 14:04:00,
2013-01-08 07:10:00,15.0,4.7,30.34,ESE,121,1.0,3.0,63,0.00,,,0.00,Wunderground v.1.15,2013-01-08 14:10:00,
2013-01-08 07:15:00,15.2,4.5,30.35,ESE,121,1.0,1.0,62,0.00,,,0.00,Wunderground v.1.15,2013-01-08 14:15:00,
2013-01-08 07:20:00,15.2,4.9,30.35,ESE,121,0.0,1.0,63,0.00,,,0.00,Wunderground v.1.15,2013-01-08 14:20:00,
2013-01-08 07:24:00,14.8,4.1,30.34,ESE,121,0.0,2.0,62,0.00,,,0.00,Wunderground v.1.15,2013-01-08 14:24:00,
2013-01-08 07:30:00,14.5,4.2,30.35,ESE,121,1.0,2.0,63,0.00,,,0.00,Wunderground v.1.15,2013-01-08 14:30:00,
2013-01-08 07:40:00,15.0,4.7,30.34,SSE,155,3.0,4.0,63,0.00,,,0.00,Wunderground v.1.15,2013-01-08 14:40:00,
2013-01-08 07:44:00,15.3,4.6,30.35,SSE,155,3.0,3.0,62,0.00,,,0.00,Wunderground v.1.15,2013-01-08 14:44:00,
2013-01-08 07:50:00,15.6,4.5,30.35,SSE,155,1.0,3.0,61,0.00,,,0.00,Wunderground v.1.15,2013-01-08 14:50:00,
2013-01-08 08:00:00,16.0,4.9,30.36,SSE,155,0.0,0.0,61,0.00,,,0.00,Wunderground v.1.15,2013-01-08 15:00:00,
2013-01-08 08:10:00,15.2,5.2,30.36,SSE,155,1.0,1.0,64,0.00,,,0.00,Wunderground v.1.15,2013-01-08 15:10:00,
2013-01-08 08:14:00,14.9,4.2,30.36,SSE,155,0.0,1.0,62,0.00,,,0.00,Wunderground v.1.15,2013-01-08 15:14:00,
2013-01-08 08:20:00,14.4,4.1,30.36,SSE,155,0.0,0.0,63,0.00,,,0.00,Wunderground v.1.15,2013-01-08 15:20:00,
2013-01-08 08:24:00,14.4,4.8,30.36,SSE,155,0.0,0.0,65,0.00,,,0.00,Wunderground v.1.15,2013-01-08 15:24:00,
2013-01-08 08:30:00,14.5,4.5,30.37,SSE,155,0.0,0.0,64,0.00,,,0.00,Wunderground v.1.15,2013-01-08 15:30:00,
2013-01-08 08:40:00,15.2,5.5,30.38,SSE,155,0.0,0.0,65,0.00,,,0.00,Wunderground v.1.15,2013-01-08 15:40:00,
2013-01-08 08:44:00,16.1,6.4,30.38,SSE,155,0.0,0.0,65,0.00,,,0.00,Wunderground v.1.15,2013-01-08 15:44:00,
2013-01-08 08:50:00,17.0,5.9,30.38,SSE,155,0.0,0.0,61,0.00,,,0.00,Wunderground v.1.15,2013-01-08 15:50:00,
2013-01-08 09:00:00,17.6,4.9,30.39,SSE,155,0.0,7.0,57,0.00,,,0.00,Wunderground v.1.15,2013-01-08 16:00:00,
2013-01-08 09:10:00,18.3,5.2,30.39,SSE,155,0.0,7.0,56,0.00,,,0.00,Wunderground v.1.15,2013-01-08 16:10:00,
2013-01-08 09:15:00,18.6,5.9,30.39,SSE,155,0.0,0.0,57,0.00,,,0.00,Wunderground v.1.15,2013-01-08 16:15:00,
2013-01-08 09:20:00,18.9,5.4,30.39,SSE,155,0.0,2.0,55,0.00,,,0.00,Wunderground v.1.15,2013-01-08 16:20:00,
2013-01-08 09:24:00,18.3,5.2,30.39,SSE,155,1.0,1.0,56,0.00,,,0.00,Wunderground v.1.15,2013-01-08 16:24:00,
2013-01-08 09:30:00,18.1,5.4,30.39,SSE,155,1.0,1.0,57,0.00,,,0.00,Wunderground v.1.15,2013-01-08 16:30:00,
2013-01-08 09:40:00,19.7,6.5,30.40,SSE,155,0.0,1.0,56,0.00,,,0.00,Wunderground v.1.15,2013-01-08 16:40:00,
2013-01-08 09:44:00,20.1,6.1,30.41,SSE,155,1.0,1.0,54,0.00,,,0.00,Wunderground v.1.15,2013-01-08 16:44:00,
2013-01-08 09:50:00,21.1,7.4,30.40,SSE,155,1.0,1.0,55,0.00,,,0.00,Wunderground v.1.15,2013-01-08 16:50:00,
2013-01-08 09:55:00,21.7,6.3,30.40,SSE,155,1.0,2.0,51,0.00,,,0.00,Wunderground v.1.15,2013-01-08 16:55:00,
2013-01-08 10:00:00,21.5,6.1,30.40,SSE,155,1.0,1.0,51,0.00,,,0.00,Wunderground v.1.15,2013-01-08 17:00:00,
2013-01-08 10:05:00,21.6,6.2,30.40,SSE,155,1.0,2.0,51,0.00,,,0.00,Wunderground v.1.15,2013-01-08 17:05:00,
2013-01-08 10:10:00,22.1,7.1,30.40,SSE,155,0.0,0.0,52,0.00,,,0.00,Wunderground v.1.15,2013-01-08 17:10:00,
2013-01-08 10:14:00,22.7,7.3,30.41,SSE,155,0.0,0.0,51,0.00,,,0.00,Wunderground v.1.15,2013-01-08 17:14:00,
2013-01-08 10:20:00,23.7,7.3,30.41,SSE,155,0.0,0.0,49,0.00,,,0.00,Wunderground v.1.15,2013-01-08 17:20:00,
2013-01-08 10:30:00,25.3,8.3,30.41,SSE,155,1.0,2.0,48,0.00,,,0.00,Wunderground v.1.15,2013-01-08 17:30:00,
2013-01-08 10:34:00,25.8,8.3,30.42,SSE,155,1.0,2.0,47,0.00,,,0.00,Wunderground v.1.15,2013-01-08 17:34:00,
2013-01-08 10:40:00,26.5,8.0,30.42,SSE,155,1.0,1.0,45,0.00,,,0.00,Wunderground v.1.15,2013-01-08 17:40:00,
2013-01-08 10:50:00,27.5,7.9,30.42,SSE,156,1.0,3.0,43,0.00,,,0.00,Wunderground v.1.15,2013-01-08 17:50:00,
2013-01-08 10:55:00,26.9,7.9,30.42,SSE,156,1.0,3.0,44,0.00,,,0.00,Wunderground v.1.15,2013-01-08 17:55:00,
2013-01-08 11:04:00,26.5,7.0,30.41,SSE,156,1.0,4.0,43,0.00,,,0.00,Wunderground v.1.15,2013-01-08 18:04:00,
2013-01-08 11:10:00,26.0,8.0,30.41,SSE,156,2.0,4.0,46,0.00,,,0.00,Wunderground v.1.15,2013-01-08 18:10:00,
2013-01-08 11:14:00,25.9,8.4,30.41,SSE,156,2.0,3.0,47,0.00,,,0.00,Wunderground v.1.15,2013-01-08 18:14:00,
2013-01-08 11:20:00,26.1,8.6,30.41,SSE,156,2.0,3.0,47,0.00,,,0.00,Wunderground v.1.15,2013-01-08 18:20:00,
2013-01-08 11:30:00,27.1,9.5,30.41,SSE,156,1.0,1.0,47,0.00,,,0.00,Wunderground v.1.15,2013-01-08 18:30:00,
2013-01-08 11:40:00,30.2,9.3,30.40,SSE,156,1.0,1.0,41,0.00,,,0.00,Wunderground v.1.15,2013-01-08 18:40:00,
2013-01-08 11:50:00,32.3,9.5,30.39,SSE,156,1.0,1.0,38,0.00,,,0.00,Wunderground v.1.15,2013-01-08 18:50:00,
2013-01-08 11:54:00,32.7,9.8,30.39,SSE,156,1.0,1.0,38,0.00,,,0.00,Wunderground v.1.15,2013-01-08 18:54:00,
2013-01-08 12:04:00,34.1,10.5,30.39,SSE,156,1.0,1.0,37,0.00,,,0.00,Wunderground v.1.15,2013-01-08 19:04:00,
2013-01-08 12:10:00,34.3,10.7,30.38,SSE,156,1.0,1.0,37,0.00,,,0.00,Wunderground v.1.15,2013-01-08 19:10:00,
2013-01-08 12:15:00,34.0,9.8,30.38,SSE,156,1.0,1.0,36,0.00,,,0.00,Wunderground v.1.15,2013-01-08 19:15:00,
2013-01-08 12:20:00,33.1,9.6,30.38,SSE,156,1.0,1.0,37,0.00,,,0.00,Wunderground v.1.15,2013-01-08 19:20:00,
2013-01-08 12:24:00,33.1,10.2,30.38,SSE,156,1.0,1.0,38,0.00,,,0.00,Wunderground v.1.15,2013-01-08 19:24:00,
2013-01-08 12:30:00,33.7,10.1,30.37,SSE,156,1.0,3.0,37,0.00,,,0.00,Wunderground v.1.15,2013-01-08 19:30:00,
2013-01-08 12:40:00,34.4,11.4,30.37,SSE,156,1.0,1.0,38,0.00,,,0.00,Wunderground v.1.15,2013-01-08 19:40:00,
2013-01-08 12:44:00,35.1,12.0,30.36,SSE,156,1.0,1.0,38,0.00,,,0.00,Wunderground v.1.15,2013-01-08 19:44:00,
2013-01-08 12:50:00,35.9,12.1,30.36,SSE,156,1.0,1.0,37,0.00,,,0.00,Wunderground v.1.15,2013-01-08 19:50:00,
2013-01-08 12:55:00,36.3,12.5,30.36,SSE,156,1.0,1.0,37,0.00,,,0.00,Wunderground v.1.15,2013-01-08 19:55:00,
2013-01-08 13:04:00,37.1,12.6,30.36,SSE,156,1.0,5.0,36,0.00,,,0.00,Wunderground v.1.15,2013-01-08 20:04:00,
2013-01-08 13:10:00,37.7,11.1,30.37,SSE,156,1.0,5.0,33,0.00,,,0.00,Wunderground v.1.15,2013-01-08 20:10:00,
2013-01-08 13:20:00,37.0,9.8,30.36,SSE,157,1.0,1.0,32,0.00,,,0.00,Wunderground v.1.15,2013-01-08 20:20:00,
2013-01-08 13:24:00,36.6,10.8,30.36,SSE,157,1.0,3.0,34,0.00,,,0.00,Wunderground v.1.15,2013-01-08 20:24:00,
2013-01-08 13:30:00,35.9,10.9,30.37,SSE,156,1.0,3.0,35,0.00,,,0.00,Wunderground v.1.15,2013-01-08 20:30:00,
2013-01-08 13:40:00,36.6,12.7,30.36,SSE,161,2.0,4.0,37,0.00,,,0.00,Wunderground v.1.15,2013-01-08 20:40:00,
2013-01-08 13:44:00,37.2,12.0,30.37,SSW,211,3.0,5.0,35,0.00,,,0.00,Wunderground v.1.15,2013-01-08 20:44:00,
2013-01-08 13:50:00,37.7,11.8,30.37,WSW,243,2.0,5.0,34,0.00,,,0.00,Wunderground v.1.15,2013-01-08 20:50:00,
2013-01-08 13:55:00,38.2,12.3,30.37,WSW,250,2.0,2.0,34,0.00,,,0.00,Wunderground v.1.15,2013-01-08 20:55:00,
2013-01-08 14:00:00,38.8,12.8,30.37,West,264,2.0,2.0,34,0.00,,,0.00,Wunderground v.1.15,2013-01-08 21:00:00,
2013-01-08 14:04:00,39.3,12.6,30.37,NW,323,3.0,3.0,33,0.00,,,0.00,Wunderground v.1.15,2013-01-08 21:04:00,
2013-01-08 14:10:00,39.3,12.6,30.37,NW,311,3.0,3.0,33,0.00,,,0.00,Wunderground v.1.15,2013-01-08 21:10:00,
2013-01-08 14:20:00,39.7,13.6,30.38,NW,305,2.0,2.0,34,0.00,,,0.00,Wunderground v.1.15,2013-01-08 21:20:00,
2013-01-08 14:30:00,39.7,12.9,30.38,WNW,302,2.0,2.0,33,0.00,,,0.00,Wunderground v.1.15,2013-01-08 21:30:00,
2013-01-08 14:34:00,39.7,12.9,30.37,WNW,302,2.0,3.0,33,0.00,,,0.00,Wunderground v.1.15,2013-01-08 21:34:00,
2013-01-08 14:40:00,39.5,12.7,30.38,WNW,302,2.0,2.0,33,0.00,,,0.00,Wunderground v.1.15,2013-01-08 21:40:00,
2013-01-08 14:44:00,39.6,13.5,30.38,WNW,302,2.0,2.0,34,0.00,,,0.00,Wunderground v.1.15,2013-01-08 21:44:00,
2013-01-08 14:50:00,39.9,14.4,30.38,WNW,302,1.0,1.0,35,0.00,,,0.00,Wunderground v.1.15,2013-01-08 21:50:00,
2013-01-08 15:04:00,40.4,14.2,30.39,WNW,299,2.0,2.0,34,0.00,,,0.00,Wunderground v.1.15,2013-01-08 22:04:00,
2013-01-08 15:10:00,40.6,13.7,30.39,WNW,300,1.0,2.0,33,0.00,,,0.00,Wunderground v.1.15,2013-01-08 22:10:00,
2013-01-08 15:20:00,40.5,13.6,30.39,WNW,299,1.0,1.0,33,0.00,,,0.00,Wunderground v.1.15,2013-01-08 22:20:00,
2013-01-08 15:30:00,40.7,15.1,30.39,WNW,300,0.0,1.0,35,0.00,,,0.00,Wunderground v.1.15,2013-01-08 22:30:00,
2013-01-08 15:35:00,40.6,14.4,30.39,WNW,299,1.0,2.0,34,0.00,,,0.00,Wunderground v.1.15,2013-01-08 22:35:00,
2013-01-08 15:40:00,40.3,13.4,30.40,WNW,300,2.0,2.0,33,0.00,,,0.00,Wunderground v.1.15,2013-01-08 22:40:00,
2013-01-08 15:44:00,40.1,13.9,30.40,WNW,300,1.0,1.0,34,0.00,,,0.00,Wunderground v.1.15,2013-01-08 22:44:00,
2013-01-08 15:50:00,40.0,14.5,30.40,WNW,300,1.0,1.0,35,0.00,,,0.00,Wunderground v.1.15,2013-01-08 22:50:00,
2013-01-08 15:55:00,40.0,13.8,30.40,WNW,300,1.0,1.0,34,0.00,,,0.00,Wunderground v.1.15,2013-01-08 22:55:00,
2013-01-08 16:00:00,39.8,13.7,30.40,WNW,300,0.0,0.0,34,0.00,,,0.00,Wunderground v.1.15,2013-01-08 23:00:00,
2013-01-08 16:10:00,39.9,14.4,30.40,WNW,300,0.0,0.0,35,0.00,,,0.00,Wunderground v.1.15,2013-01-08 23:10:00,
2013-01-08 16:20:00,40.1,14.6,30.41,WNW,300,0.0,2.0,35,0.00,,,0.00,Wunderground v.1.15,2013-01-08 23:20:00,
2013-01-08 16:25:00,40.0,13.8,30.41,WNW,300,1.0,2.0,34,0.00,,,0.00,Wunderground v.1.15,2013-01-08 23:25:00,
2013-01-08 16:30:00,39.2,13.1,30.42,WNW,299,2.0,2.0,34,0.00,,,0.00,Wunderground v.1.15,2013-01-08 23:30:00,
2013-01-08 16:34:00,38.2,12.9,30.42,WNW,299,1.0,2.0,35,0.00,,,0.00,Wunderground v.1.15,2013-01-08 23:34:00,
2013-01-08 16:40:00,36.9,13.0,30.41,WNW,300,1.0,1.0,37,0.00,,,0.00,Wunderground v.1.15,2013-01-08 23:40:00,
2013-01-08 16:45:00,36.0,12.8,30.42,WNW,300,1.0,1.0,38,0.00,,,0.00,Wunderground v.1.15,2013-01-08 23:45:00,
2013-01-08 16:50:00,35.1,13.2,30.42,WNW,300,1.0,1.0,40,0.00,,,0.00,Wunderground v.1.15,2013-01-08 23:50:00,
2013-01-08 16:54:00,34.4,12.5,30.42,WNW,299,1.0,1.0,40,0.00,,,0.00,Wunderground v.1.15,2013-01-08 23:54:00,
2013-01-08 17:04:00,32.8,12.7,30.43,WNW,300,1.0,5.0,43,0.00,,,0.00,Wunderground v.1.15,2013-01-09 00:04:00,
2013-01-08 17:10:00,32.2,12.2,30.44,WNW,300,1.0,5.0,43,0.00,,,0.00,Wunderground v.1.15,2013-01-09 00:10:00,
2013-01-08 17:15:00,31.7,12.8,30.44,WNW,299,0.0,0.0,45,0.00,,,0.00,Wunderground v.1.15,2013-01-09 00:15:00,
2013-01-08 17:20:00,31.2,12.3,30.45,WNW,300,1.0,2.0,45,0.00,,,0.00,Wunderground v.1.15,2013-01-09 00:20:00,
2013-01-08 17:24:00,30.8,12.4,30.45,WNW,299,1.0,1.0,46,0.00,,,0.00,Wunderground v.1.15,2013-01-09 00:24:00,
2013-01-08 17:30:00,30.5,13.1,30.45,WNW,300,0.0,1.0,48,0.00,,,0.00,Wunderground v.1.15,2013-01-09 00:30:00,
2013-01-08 17:34:00,30.2,12.4,30.46,WNW,300,0.0,0.0,47,0.00,,,0.00,Wunderground v.1.15,2013-01-09 00:34:00,
2013-01-08 17:40:00,29.7,11.9,30.46,WNW,300,0.0,0.0,47,0.00,,,0.00,Wunderground v.1.15,2013-01-09 00:40:00,
2013-01-08 17:50:00,29.1,11.8,30.46,WNW,300,0.0,0.0,48,0.00,,,0.00,Wunderground v.1.15,2013-01-09 00:50:00,
2013-01-08 17:55:00,28.8,12.0,30.46,WNW,300,0.0,0.0,49,0.00,,,0.00,Wunderground v.1.15,2013-01-09 00:55:00,
2013-01-08 18:00:00,28.6,11.8,30.46,WNW,300,0.0,4.0,49,0.00,,,0.00,Wunderground v.1.15,2013-01-09 01:00:00,
2013-01-08 18:10:00,28.7,12.8,30.46,WNW,299,1.0,4.0,51,0.00,,,0.00,Wunderground v.1.15,2013-01-09 01:10:00,
2013-01-08 18:14:00,28.7,12.4,30.46,WNW,300,1.0,1.0,50,0.00,,,0.00,Wunderground v.1.15,2013-01-09 01:14:00,
2013-01-08 18:20:00,28.7,12.4,30.47,WNW,302,1.0,2.0,50,0.00,,,0.00,Wunderground v.1.15,2013-01-09 01:20:00,
2013-01-08 18:24:00,28.7,12.4,30.47,WNW,302,1.0,1.0,50,0.00,,,0.00,Wunderground v.1.15,2013-01-09 01:24:00,
2013-01-08 18:30:00,28.4,12.6,30.47,WNW,303,1.0,1.0,51,0.00,,,0.00,Wunderground v.1.15,2013-01-09 01:30:00,
2013-01-08 18:34:00,28.1,12.3,30.47,WNW,303,1.0,1.0,51,0.00,,,0.00,Wunderground v.1.15,2013-01-09 01:34:00,
2013-01-08 18:40:00,28.1,12.3,30.47,WNW,303,1.0,1.0,51,0.00,,,0.00,Wunderground v.1.15,2013-01-09 01:40:00,
2013-01-08 18:44:00,28.1,12.3,30.48,WNW,303,0.0,0.0,51,0.00,,,0.00,Wunderground v.1.15,2013-01-09 01:44:00,
2013-01-08 18:50:00,28.0,12.2,30.48,WNW,303,0.0,0.0,51,0.00,,,0.00,Wunderground v.1.15,2013-01-09 01:50:00,
2013-01-08 18:54:00,27.8,12.4,30.48,WNW,303,0.0,0.0,52,0.00,,,0.00,Wunderground v.1.15,2013-01-09 01:54:00,
2013-01-08 19:04:00,27.3,12.8,30.49,WNW,303,0.0,4.0,54,0.00,,,0.00,Wunderground v.1.15,2013-01-09 02:04:00,
2013-01-08 19:10:00,27.1,13.1,30.49,WNW,303,0.0,4.0,55,0.00,,,0.00,Wunderground v.1.15,2013-01-09 02:10:00,
2013-01-08 19:14:00,27.0,13.0,30.49,WNW,303,0.0,0.0,55,0.00,,,0.00,Wunderground v.1.15,2013-01-09 02:14:00,
2013-01-08 19:20:00,26.8,13.2,30.50,WNW,303,0.0,1.0,56,0.00,,,0.00,Wunderground v.1.15,2013-01-09 02:20:00,
2013-01-08 19:25:00,26.6,13.0,30.51,WNW,303,0.0,0.0,56,0.00,,,0.00,Wunderground v.1.15,2013-01-09 02:25:00,
2013-01-08 19:30:00,26.2,13.0,30.51,WNW,303,0.0,0.0,57,0.00,,,0.00,Wunderground v.1.15,2013-01-09 02:30:00,
2013-01-08 19:34:00,26.2,13.0,30.51,WNW,303,0.0,0.0,57,0.00,,,0.00,Wunderground v.1.15,2013-01-09 02:34:00,
2013-01-08 19:40:00,26.2,13.0,30.51,NW,304,0.0,0.0,57,0.00,,,0.00,Wunderground v.1.15,2013-01-09 02:40:00,
2013-01-08 19:50:00,26.3,13.1,30.53,WNW,303,0.0,0.0,57,0.00,,,0.00,Wunderground v.1.15,2013-01-09 02:50:00,
2013-01-08 19:55:00,26.2,13.0,30.53,NW,304,0.0,0.0,57,0.00,,,0.00,Wunderground v.1.15,2013-01-09 02:55:00,
2013-01-08 20:00:00,25.9,12.7,30.53,WNW,303,0.0,4.0,57,0.00,,,0.00,Wunderground v.1.15,2013-01-09 03:00:00,
2013-01-08 20:04:00,25.7,12.9,30.53,NW,307,1.0,4.0,58,0.00,,,0.00,Wunderground v.1.15,2013-01-09 03:04:00,
2013-01-08 20:10:00,25.8,13.0,30.53,NW,307,1.0,4.0,58,0.00,,,0.00,Wunderground v.1.15,2013-01-09 03:10:00,
2013-01-08 20:15:00,25.9,13.1,30.54,NW,308,1.0,2.0,58,0.00,,,0.00,Wunderground v.1.15,2013-01-09 03:15:00,
2013-01-08 20:20:00,25.8,13.0,30.54,NW,309,1.0,2.0,58,0.00,,,0.00,Wunderground v.1.15,2013-01-09 03:20:00,
2013-01-08 20:24:00,25.6,12.5,30.54,NW,309,1.0,1.0,57,0.00,,,0.00,Wunderground v.1.15,2013-01-09 03:24:00,
2013-01-08 20:30:00,25.4,13.1,30.55,NW,309,0.0,1.0,59,0.00,,,0.00,Wunderground v.1.15,2013-01-09 03:30:00,
2013-01-08 20:34:00,25.2,12.9,30.55,NW,309,1.0,2.0,59,0.00,,,0.00,Wunderground v.1.15,2013-01-09 03:34:00,
2013-01-08 20:40:00,24.8,12.1,30.56,NW,307,1.0,2.0,58,0.00,,,0.00,Wunderground v.1.15,2013-01-09 03:40:00,
2013-01-08 20:44:00,24.7,12.8,30.56,NW,307,1.0,1.0,60,0.00,,,0.00,Wunderground v.1.15,2013-01-09 03:44:00,
2013-01-08 20:50:00,24.5,12.6,30.56,NW,307,0.0,1.0,60,0.00,,,0.00,Wunderground v.1.15,2013-01-09 03:50:00,
2013-01-08 20:55:00,24.3,12.4,30.56,NW,307,0.0,0.0,60,0.00,,,0.00,Wunderground v.1.15,2013-01-09 03:55:00,
2013-01-08 21:05:00,23.9,12.4,30.56,NW,307,0.0,9.0,61,0.00,,,0.00,Wunderground v.1.15,2013-01-09 04:05:00,
2013-01-08 21:10:00,23.8,12.7,30.56,NW,307,0.0,9.0,62,0.00,,,0.00,Wunderground v.1.15,2013-01-09 04:10:00,
2013-01-08 21:14:00,23.5,12.4,30.56,NW,307,0.0,0.0,62,0.00,,,0.00,Wunderground v.1.15,2013-01-09 04:14:00,
2013-01-08 21:20:00,22.9,11.8,30.57,NW,307,0.0,0.0,62,0.00,,,0.00,Wunderground v.1.15,2013-01-09 04:20:00,
2013-01-08 21:25:00,22.6,12.2,30.57,NW,307,0.0,0.0,64,0.00,,,0.00,Wunderground v.1.15,2013-01-09 04:25:00,
2013-01-08 21:30:00,22.7,12.7,30.57,NW,311,1.0,4.0,65,0.00,,,0.00,Wunderground v.1.15,2013-01-09 04:30:00,
2013-01-08 21:34:00,22.9,12.5,30.57,NW,311,1.0,2.0,64,0.00,,,0.00,Wunderground v.1.15,2013-01-09 04:34:00,
2013-01-08 21:40:00,23.1,12.7,30.57,NW,312,1.0,2.0,64,0.00,,,0.00,Wunderground v.1.15,2013-01-09 04:40:00,
2013-01-08 21:45:00,23.1,12.4,30.58,NW,313,1.0,1.0,63,0.00,,,0.00,Wunderground v.1.15,2013-01-09 04:45:00,
2013-01-08 21:50:00,23.2,12.5,30.59,NW,313,1.0,1.0,63,0.00,,,0.00,Wunderground v.1.15,2013-01-09 04:50:00,
2013-01-08 21:54:00,23.2,12.5,30.59,NW,313,0.0,0.0,63,0.00,,,0.00,Wunderground v.1.15,2013-01-09 04:54:00,
2013-01-08 22:04:00,22.7,12.0,30.59,NW,313,0.0,5.0,63,0.00,,,0.00,Wunderground v.1.15,2013-01-09 05:04:00,
2013-01-08 22:10:00,22.4,12.1,30.59,NW,313,0.0,5.0,64,0.00,,,0.00,Wunderground v.1.15,2013-01-09 05:10:00,
2013-01-08 22:20:00,21.5,11.2,30.60,NW,313,0.0,0.0,64,0.00,,,0.00,Wunderground v.1.15,2013-01-09 05:20:00,
2013-01-08 22:24:00,20.9,10.6,30.60,NW,313,0.0,0.0,64,0.00,,,0.00,Wunderground v.1.15,2013-01-09 05:24:00,
2013-01-08 22:30:00,20.6,11.4,30.61,NW,313,0.0,0.0,67,0.00,,,0.00,Wunderground v.1.15,2013-01-09 05:30:00,
2013-01-08 22:40:00,20.3,11.4,30.61,NW,313,0.0,0.0,68,0.00,,,0.00,Wunderground v.1.15,2013-01-09 05:40:00,
2013-01-08 22:44:00,20.2,11.0,30.62,NW,313,0.0,0.0,67,0.00,,,0.00,Wunderground v.1.15,2013-01-09 05:44:00,
2013-01-08 22:50:00,19.9,11.0,30.62,NW,313,0.0,0.0,68,0.00,,,0.00,Wunderground v.1.15,2013-01-09 05:50:00,
2013-01-08 22:55:00,19.7,10.8,30.63,NW,313,0.0,0.0,68,0.00,,,0.00,Wunderground v.1.15,2013-01-09 05:55:00,
2013-01-08 23:00:00,19.6,10.7,30.63,NW,313,0.0,0.0,68,0.00,,,0.00,Wunderground v.1.15,2013-01-09 06:00:00,
2013-01-08 23:10:00,19.1,10.6,30.63,NW,313,0.0,1.0,69,0.00,,,0.00,Wunderground v.1.15,2013-01-09 06:10:00,
2013-01-08 23:20:00,20.3,11.7,30.63,NW,313,1.0,1.0,69,0.00,,,0.00,Wunderground v.1.15,2013-01-09 06:20:00,
2013-01-08 23:30:00,21.0,11.1,30.63,NW,313,0.0,1.0,65,0.00,,,0.00,Wunderground v.1.15,2013-01-09 06:30:00,
2013-01-08 23:40:00,21.1,11.2,30.64,NW,313,0.0,0.0,65,0.00,,,0.00,Wunderground v.1.15,2013-01-09 06:40:00,
2013-01-08 23:44:00,21.1,10.5,30.64,NW,313,0.0,0.0,63,0.00,,,0.00,Wunderground v.1.15,2013-01-09 06:44:00,
2013-01-08 23:50:00,20.5,10.2,30.64,NW,313,0.0,0.0,64,0.00,,,0.00,Wunderground v.1.15,2013-01-09 06:50:00,
2013-01-08 23:55:00,20.0,10.8,30.63,NW,313,0.0,0.0,67,0.00,,,0.00,Wunderground v.1.15,2013-01-09 06:55:00,